createdAt,value
2017-08-10T00:02:02.610Z,4.63
2017-08-10T00:04:30.914Z,3.90
2017-08-10T00:06:59.179Z,3.67
2017-08-10T00:09:27.458Z,2.97
2017-08-10T00:11:55.733Z,3.43
2017-08-10T00:14:24.003Z,4.27
2017-08-10T00:16:52.256Z,3.97
2017-08-10T00:19:20.503Z,3.77
2017-08-10T00:21:48.765Z,3.93
2017-08-10T00:24:17.022Z,3.60
2017-08-10T00:26:45.258Z,3.77
2017-08-10T00:29:13.520Z,3.40
2017-08-10T00:31:41.764Z,4.77
2017-08-10T00:34:09.995Z,3.77
2017-08-10T00:36:38.226Z,3.93
2017-08-10T00:39:07.269Z,4.07
2017-08-10T00:41:35.507Z,5.50
2017-08-10T00:44:03.767Z,5.20
2017-08-10T00:46:32.823Z,6.60
2017-08-10T00:49:01.032Z,7.90
2017-08-10T00:51:30.144Z,6.30
2017-08-10T00:53:59.133Z,5.33
2017-08-10T00:56:28.157Z,5.20
2017-08-10T00:58:56.413Z,6.93
2017-08-10T01:01:24.669Z,5.00
2017-08-10T01:03:53.716Z,5.30
2017-08-10T01:06:21.984Z,5.20
2017-08-10T01:08:50.207Z,4.60
2017-08-10T01:11:18.479Z,4.80
2017-08-10T01:13:46.707Z,4.50
2017-08-10T01:16:14.958Z,4.60
2017-08-10T01:18:43.239Z,5.57
2017-08-10T01:21:12.236Z,4.90
2017-08-10T01:23:40.493Z,4.80
2017-08-10T01:26:08.750Z,5.10
2017-08-10T01:28:37.027Z,4.80
2017-08-10T01:31:05.274Z,4.80
2017-08-10T01:33:33.978Z,3.80
2017-08-10T01:36:02.270Z,4.37
2017-08-10T01:38:30.497Z,4.10
2017-08-10T01:40:58.766Z,4.67
2017-08-10T01:43:27.037Z,4.17
2017-08-10T01:45:55.455Z,4.13
2017-08-10T01:48:23.700Z,4.83
2017-08-10T01:50:51.939Z,4.20
2017-08-10T01:53:20.225Z,4.70
2017-08-10T01:55:49.254Z,5.23
2017-08-10T01:58:17.554Z,5.77
2017-08-10T02:00:45.774Z,6.03
2017-08-10T02:03:14.786Z,5.57
2017-08-10T02:05:43.096Z,5.60
2017-08-10T02:08:11.317Z,5.87
2017-08-10T02:10:39.562Z,5.33
2017-08-10T02:13:07.786Z,5.20
2017-08-10T02:15:36.026Z,5.23
2017-08-10T02:18:04.290Z,5.33
2017-08-10T02:20:32.541Z,5.20
2017-08-10T02:23:01.602Z,5.33
2017-08-10T02:25:29.838Z,5.00
2017-08-10T02:27:58.082Z,5.23
2017-08-10T02:30:26.381Z,4.20
2017-08-10T02:32:54.630Z,5.20
2017-08-10T02:35:22.886Z,4.33
2017-08-10T02:37:51.903Z,4.87
2017-08-10T02:40:20.935Z,4.40
2017-08-10T02:42:49.209Z,4.40
2017-08-10T02:45:17.458Z,5.43
2017-08-10T02:47:45.697Z,5.17
2017-08-10T02:50:13.965Z,3.87
2017-08-10T02:52:42.195Z,4.13
2017-08-10T02:55:10.438Z,4.77
2017-08-10T02:57:39.458Z,5.20
2017-08-10T03:00:07.696Z,5.60
2017-08-10T03:02:35.953Z,5.90
2017-08-10T03:05:05.042Z,5.13
2017-08-10T03:07:33.321Z,6.03
2017-08-10T03:10:04.526Z,4.97
2017-08-10T03:12:32.772Z,6.00
2017-08-10T03:15:01.972Z,6.17
2017-08-10T03:17:30.307Z,5.00
2017-08-10T03:19:59.315Z,5.50
2017-08-10T03:22:27.537Z,6.33
2017-08-10T03:24:55.809Z,5.27
2017-08-10T03:27:24.831Z,5.60
2017-08-10T03:29:53.089Z,5.17
2017-08-10T03:32:22.225Z,5.07
2017-08-10T03:34:50.445Z,5.53
2017-08-10T03:37:18.682Z,5.07
2017-08-10T03:39:46.985Z,4.37
2017-08-10T03:42:15.202Z,4.30
2017-08-10T03:44:44.203Z,4.57
2017-08-10T03:47:12.489Z,4.83
2017-08-10T03:49:40.716Z,4.87
2017-08-10T03:52:09.018Z,4.53
2017-08-10T03:54:38.034Z,5.07
2017-08-10T03:57:06.265Z,4.73
2017-08-10T03:59:34.529Z,4.50
2017-08-10T04:02:02.814Z,4.87
2017-08-10T04:04:31.050Z,4.60
2017-08-10T04:06:59.286Z,4.67
2017-08-10T04:09:27.498Z,5.20
2017-08-10T04:11:55.738Z,5.30
2017-08-10T04:14:24.735Z,5.90
2017-08-10T04:16:53.758Z,5.57
2017-08-10T04:19:22.005Z,6.50
2017-08-10T04:21:50.235Z,5.93
2017-08-10T04:24:18.465Z,5.13
2017-08-10T04:26:47.509Z,5.03
2017-08-10T04:29:15.738Z,6.00
2017-08-10T04:31:44.759Z,6.37
2017-08-10T04:34:13.016Z,5.70
2017-08-10T04:36:41.278Z,5.80
2017-08-10T04:39:10.298Z,5.80
2017-08-10T04:41:38.598Z,6.00
2017-08-10T04:44:06.833Z,6.27
2017-08-10T04:46:35.843Z,6.47
2017-08-10T04:49:04.109Z,6.70
2017-08-10T04:51:33.098Z,5.60
2017-08-10T04:54:02.115Z,5.80
2017-08-10T04:56:30.368Z,6.60
2017-08-10T04:58:59.379Z,5.10
2017-08-10T05:01:27.639Z,5.20
2017-08-10T05:03:55.886Z,5.90
2017-08-10T05:06:24.167Z,6.10
2017-08-10T05:08:52.410Z,5.93
2017-08-10T05:11:20.695Z,5.00
2017-08-10T05:13:48.993Z,5.73
2017-08-10T05:16:17.247Z,6.90
2017-08-10T05:18:45.494Z,6.83
2017-08-10T05:21:13.743Z,6.67
2017-08-10T05:23:41.982Z,6.70
2017-08-10T05:26:10.226Z,7.40
2017-08-10T05:28:38.457Z,7.10
2017-08-10T05:31:06.735Z,6.50
2017-08-10T05:33:34.954Z,6.30
2017-08-10T05:36:03.250Z,6.47
2017-08-10T05:38:32.275Z,6.13
2017-08-10T05:41:00.586Z,7.00
2017-08-10T05:43:29.634Z,4.90
2017-08-10T05:45:57.897Z,5.10
2017-08-10T05:48:26.194Z,3.93
2017-08-10T05:50:54.413Z,4.90
2017-08-10T05:53:22.658Z,5.07
2017-08-10T05:55:50.954Z,4.47
2017-08-10T05:58:19.205Z,4.50
2017-08-10T06:00:48.163Z,4.80
2017-08-10T06:03:16.455Z,5.07
2017-08-10T06:05:44.662Z,5.13
2017-08-10T06:08:12.938Z,5.33
2017-08-10T06:10:41.174Z,4.30
2017-08-10T06:13:09.410Z,12.80
2017-08-10T06:15:37.690Z,5.90
2017-08-10T06:18:06.703Z,5.67
2017-08-10T06:20:35.496Z,4.53
2017-08-10T06:23:04.502Z,4.93
2017-08-10T06:25:33.498Z,5.07
2017-08-10T06:28:01.745Z,4.00
2017-08-10T06:30:30.743Z,4.23
2017-08-10T06:32:59.751Z,3.77
2017-08-10T06:35:28.043Z,4.00
2017-08-10T06:37:56.306Z,3.87
2017-08-10T06:40:24.993Z,4.07
2017-08-10T06:42:53.255Z,4.27
2017-08-10T06:45:22.293Z,3.57
2017-08-10T06:47:50.554Z,3.90
2017-08-10T06:50:18.799Z,3.60
2017-08-10T06:52:47.875Z,4.23
2017-08-10T06:55:16.097Z,4.33
2017-08-10T06:57:44.352Z,4.73
2017-08-10T07:00:12.673Z,4.23
2017-08-10T07:02:40.915Z,4.83
2017-08-10T07:05:09.240Z,3.73
2017-08-10T07:07:37.442Z,3.83
2017-08-10T07:10:05.706Z,2.93
2017-08-10T07:12:33.965Z,3.17
2017-08-10T07:15:02.223Z,4.27
2017-08-10T07:17:30.446Z,3.80
2017-08-10T07:19:58.716Z,4.73
2017-08-10T07:22:26.982Z,4.03
2017-08-10T07:24:55.273Z,3.67
2017-08-10T07:27:23.499Z,3.17
2017-08-10T07:29:51.765Z,4.70
2017-08-10T07:32:19.996Z,3.60
2017-08-10T07:34:48.262Z,5.47
2017-08-10T07:37:16.489Z,3.97
2017-08-10T07:39:45.486Z,5.67
2017-08-10T07:42:13.751Z,4.17
2017-08-10T07:44:42.103Z,4.20
2017-08-10T07:47:10.322Z,3.10
2017-08-10T07:49:38.586Z,3.23
2017-08-10T07:52:06.874Z,2.87
2017-08-10T07:54:35.923Z,3.53
2017-08-10T07:57:04.169Z,3.07
2017-08-10T07:59:32.430Z,3.13
2017-08-10T08:02:01.516Z,2.80
2017-08-10T08:04:30.549Z,2.80
2017-08-10T08:06:58.792Z,3.40
2017-08-10T08:09:27.816Z,4.70
2017-08-10T08:11:56.143Z,3.30
2017-08-10T08:14:24.355Z,3.17
2017-08-10T08:16:52.605Z,4.13
2017-08-10T08:19:20.874Z,4.10
2017-08-10T08:21:49.105Z,3.27
2017-08-10T08:24:17.386Z,3.70
2017-08-10T08:26:45.622Z,3.40
2017-08-10T08:29:14.657Z,4.20
2017-08-10T08:31:42.920Z,4.30
2017-08-10T08:34:11.158Z,3.80
2017-08-10T08:36:40.200Z,4.07
2017-08-10T08:39:08.457Z,4.20
2017-08-10T08:41:37.518Z,2.80
2017-08-10T08:44:05.762Z,3.07
2017-08-10T08:46:34.001Z,2.90
2017-08-10T08:49:02.274Z,2.93
2017-08-10T08:51:31.282Z,3.83
2017-08-10T08:53:59.532Z,3.53
2017-08-10T08:56:28.551Z,3.00
2017-08-10T08:58:56.791Z,3.23
2017-08-10T09:01:25.006Z,2.83
2017-08-10T09:03:53.301Z,2.90
2017-08-10T09:06:22.643Z,3.27
2017-08-10T09:08:50.894Z,3.23
2017-08-10T09:11:19.154Z,2.60
2017-08-10T09:13:47.392Z,3.93
2017-08-10T09:16:16.437Z,3.20
2017-08-10T09:18:44.714Z,3.60
2017-08-10T09:21:12.934Z,2.87
2017-08-10T09:23:41.207Z,3.17
2017-08-10T09:26:09.442Z,2.40
2017-08-10T09:28:37.700Z,2.90
2017-08-10T09:31:05.957Z,3.20
2017-08-10T09:33:34.222Z,2.60
2017-08-10T09:36:03.229Z,2.80
2017-08-10T09:38:31.468Z,4.20
2017-08-10T09:40:59.795Z,3.60
2017-08-10T09:43:28.046Z,2.70
2017-08-10T09:45:57.070Z,3.40
2017-08-10T09:48:25.319Z,3.90
2017-08-10T09:50:54.319Z,3.43
2017-08-10T09:53:23.376Z,4.13
2017-08-10T09:55:51.655Z,3.67
2017-08-10T09:58:19.926Z,3.00
2017-08-10T10:00:48.256Z,3.03
2017-08-10T10:03:18.206Z,2.70
2017-08-10T10:05:46.455Z,2.80
2017-08-10T10:08:14.733Z,2.67
2017-08-10T10:10:42.965Z,2.97
2017-08-10T10:13:11.253Z,2.80
2017-08-10T10:15:39.506Z,3.77
2017-08-10T10:18:07.748Z,3.60
2017-08-10T10:20:36.002Z,3.00
2017-08-10T10:23:05.147Z,3.30
2017-08-10T10:25:33.371Z,3.90
2017-08-10T10:28:02.434Z,3.73
2017-08-10T10:30:30.663Z,3.00
2017-08-10T10:32:58.919Z,4.33
2017-08-10T10:35:27.154Z,2.57
2017-08-10T10:37:55.475Z,3.03
2017-08-10T10:40:24.474Z,3.63
2017-08-10T10:42:52.762Z,3.33
2017-08-10T10:45:21.784Z,2.80
2017-08-10T10:47:50.031Z,3.00
2017-08-10T10:50:18.302Z,3.00
2017-08-10T10:52:46.630Z,2.33
2017-08-10T10:55:14.859Z,2.60
2017-08-10T10:57:43.890Z,3.83
2017-08-10T11:00:12.167Z,3.30
2017-08-10T11:02:40.451Z,3.00
2017-08-10T11:05:08.711Z,2.93
2017-08-10T11:07:36.960Z,2.80
2017-08-10T11:10:05.998Z,2.77
2017-08-10T11:12:34.243Z,2.80
2017-08-10T11:15:02.505Z,3.37
2017-08-10T11:17:31.606Z,2.73
2017-08-10T11:19:59.837Z,3.30
2017-08-10T11:22:28.072Z,3.27
2017-08-10T11:24:56.322Z,3.00
2017-08-10T11:27:25.335Z,3.40
2017-08-10T11:29:55.036Z,3.07
2017-08-10T11:32:24.083Z,3.63
2017-08-10T11:34:52.328Z,3.23
2017-08-10T11:37:20.570Z,3.87
2017-08-10T11:39:48.840Z,4.80
2017-08-10T11:42:17.107Z,2.80
2017-08-10T11:44:45.365Z,3.50
2017-08-10T11:47:13.599Z,3.70
2017-08-10T11:49:42.594Z,3.20
2017-08-10T11:52:10.850Z,3.37
2017-08-10T11:54:39.863Z,3.47
2017-08-10T11:57:08.948Z,3.40
2017-08-10T11:59:37.190Z,3.03
2017-08-10T12:02:05.455Z,3.17
2017-08-10T12:04:33.770Z,3.87
2017-08-10T12:07:02.058Z,3.30
2017-08-10T12:09:30.292Z,3.23
2017-08-10T12:11:59.781Z,3.90
2017-08-10T12:14:28.007Z,3.90
2017-08-10T12:16:56.250Z,4.40
2017-08-10T12:19:25.134Z,5.03
2017-08-10T12:21:53.415Z,3.70
2017-08-10T12:24:21.685Z,4.40
2017-08-10T12:26:49.939Z,3.77
2017-08-10T12:29:18.197Z,3.97
2017-08-10T12:31:47.929Z,4.77
2017-08-10T12:34:16.174Z,4.83
2017-08-10T12:36:45.207Z,5.07
2017-08-10T12:39:13.462Z,5.33
2017-08-10T12:41:42.537Z,4.90
2017-08-10T12:44:11.996Z,4.80
2017-08-10T12:46:40.999Z,5.80
2017-08-10T12:49:09.287Z,6.50
2017-08-10T12:51:37.555Z,7.50
2017-08-10T12:54:05.840Z,10.00
2017-08-10T12:56:34.091Z,10.00
2017-08-10T12:59:02.374Z,11.50
2017-08-10T13:01:31.378Z,11.77
2017-08-10T13:03:59.603Z,13.63
2017-08-10T13:06:28.667Z,15.60
2017-08-10T13:08:56.900Z,12.50
2017-08-10T13:11:25.204Z,14.17
2017-08-10T13:13:53.460Z,14.50
2017-08-10T13:16:21.737Z,14.67
2017-08-10T13:18:49.967Z,14.00
2017-08-10T13:21:18.267Z,14.47
2017-08-10T13:23:47.305Z,14.40
2017-08-10T13:26:15.518Z,15.27
2017-08-10T13:28:43.806Z,14.63
2017-08-10T13:31:12.830Z,17.50
2017-08-10T13:33:41.103Z,17.83
2017-08-10T13:36:10.152Z,16.97
2017-08-10T13:38:38.431Z,18.47
2017-08-10T13:41:06.703Z,17.27
2017-08-10T13:43:35.011Z,18.60
2017-08-10T13:46:04.072Z,18.30
2017-08-10T13:48:32.327Z,17.57
2017-08-10T13:51:00.596Z,16.93
2017-08-10T13:53:28.850Z,19.73
2017-08-10T13:55:57.160Z,18.10
2017-08-10T13:58:25.426Z,19.90
2017-08-10T14:00:53.722Z,19.50
2017-08-10T14:03:21.994Z,21.50
2017-08-10T14:05:50.278Z,21.80
2017-08-10T14:08:18.535Z,22.40
2017-08-10T14:10:46.778Z,25.20
2017-08-10T14:13:15.858Z,22.57
2017-08-10T14:15:44.133Z,23.73
2017-08-10T14:18:12.392Z,25.23
2017-08-10T14:20:40.634Z,28.97
2017-08-10T14:23:08.891Z,32.30
2017-08-10T14:25:37.143Z,28.73
2017-08-10T14:28:05.460Z,25.13
2017-08-10T14:30:34.572Z,28.63
2017-08-10T14:33:02.860Z,26.50
2017-08-10T14:35:31.135Z,25.97
2017-08-10T14:37:59.372Z,33.80
2017-08-10T14:40:28.412Z,25.93
2017-08-10T14:42:56.678Z,27.43
2017-08-10T14:45:24.959Z,23.30
2017-08-10T14:47:53.335Z,24.50
2017-08-10T14:50:21.589Z,25.50
2017-08-10T14:52:49.876Z,27.20
2017-08-10T14:55:18.168Z,28.63
2017-08-10T14:57:46.507Z,30.70
2017-08-10T15:00:15.523Z,38.20
2017-08-10T15:02:43.853Z,63.77
2017-08-10T15:05:12.155Z,41.30
2017-08-10T15:07:41.168Z,31.50
2017-08-10T15:10:10.232Z,28.30
2017-08-10T15:12:38.599Z,28.90
2017-08-10T15:15:06.872Z,27.77
2017-08-10T15:17:35.135Z,27.27
2017-08-10T15:20:03.402Z,27.63
2017-08-10T15:22:31.687Z,26.60
2017-08-10T15:25:00.024Z,27.20
2017-08-10T15:27:28.274Z,26.80
2017-08-10T15:29:56.552Z,27.10
2017-08-10T15:32:24.854Z,26.50
2017-08-10T15:34:53.114Z,31.87
2017-08-10T15:37:21.390Z,30.23
2017-08-10T15:39:50.443Z,32.67
2017-08-10T15:42:18.993Z,32.00
2017-08-10T15:44:48.177Z,33.67
2017-08-10T15:47:16.454Z,35.80
2017-08-10T15:49:45.494Z,35.33
2017-08-10T15:52:14.907Z,36.30
2017-08-10T15:54:43.611Z,36.13
2017-08-10T15:57:11.901Z,37.73
2017-08-10T15:59:40.166Z,37.57
2017-08-10T16:02:08.487Z,38.80
2017-08-10T16:04:36.771Z,38.50
2017-08-10T16:07:05.046Z,37.70
2017-08-10T16:09:33.343Z,38.63
2017-08-10T16:12:01.634Z,35.87
2017-08-10T16:14:29.927Z,40.77
2017-08-10T16:16:58.472Z,42.95
2017-08-10T16:19:26.770Z,40.47
2017-08-10T16:21:55.147Z,43.43
2017-08-10T16:24:23.407Z,38.37
2017-08-10T16:26:51.673Z,39.60
2017-08-10T16:29:19.984Z,36.13
2017-08-10T16:31:48.238Z,37.63
2017-08-10T16:34:16.501Z,39.57
2017-08-10T16:36:44.834Z,39.23
2017-08-10T16:39:13.100Z,41.67
2017-08-10T16:41:41.364Z,42.17
2017-08-10T16:44:09.674Z,49.87
2017-08-10T16:46:37.945Z,47.80
2017-08-10T16:49:06.316Z,53.30
2017-08-10T16:51:34.660Z,49.13
2017-08-10T16:54:02.913Z,52.70
2017-08-10T16:56:32.054Z,56.80
2017-08-10T16:59:00.311Z,48.87
2017-08-10T17:01:28.554Z,52.50
2017-08-10T17:03:56.928Z,53.10
2017-08-10T17:06:25.164Z,53.60
2017-08-10T17:08:53.431Z,49.70
2017-08-10T17:11:21.725Z,44.83
2017-08-10T17:13:49.992Z,45.73
2017-08-10T17:16:18.236Z,48.33
2017-08-10T17:18:46.535Z,45.90
2017-08-10T17:21:14.794Z,47.70
2017-08-10T17:23:43.076Z,55.13
2017-08-10T17:26:11.343Z,49.23
2017-08-10T17:28:40.375Z,57.53
2017-08-10T17:31:08.645Z,56.53
2017-08-10T17:33:36.970Z,53.17
2017-08-10T17:36:05.298Z,54.17
2017-08-10T17:38:34.340Z,50.83
2017-08-10T17:41:02.602Z,50.00
2017-08-10T17:43:31.762Z,50.57
2017-08-10T17:46:00.786Z,47.27
2017-08-10T17:48:29.041Z,44.90
2017-08-10T17:50:57.300Z,44.23
2017-08-10T17:53:25.711Z,47.73
2017-08-10T17:55:53.962Z,52.00
2017-08-10T17:58:22.995Z,49.30
2017-08-10T18:00:51.261Z,55.73
2017-08-10T18:03:19.584Z,55.40
2017-08-10T18:05:47.866Z,57.53
2017-08-10T18:08:16.887Z,55.43
2017-08-10T18:10:45.200Z,53.83
2017-08-10T18:13:13.482Z,39.53
2017-08-10T18:15:41.774Z,45.03
2017-08-10T18:18:10.039Z,18.00
2017-08-10T18:20:38.337Z,23.50
2017-08-10T18:23:06.574Z,35.67
2017-08-10T18:25:34.879Z,33.50
2017-08-10T18:28:03.191Z,34.90
2017-08-10T18:30:32.217Z,38.10
2017-08-10T18:33:00.504Z,44.47
2017-08-10T18:35:28.793Z,42.53
2017-08-10T18:37:57.141Z,49.87
2017-08-10T18:40:25.442Z,46.80
2017-08-10T18:42:53.712Z,48.90
2017-08-10T18:45:22.050Z,57.10
2017-08-10T18:47:50.307Z,53.40
2017-08-10T18:50:19.262Z,51.37
2017-08-10T18:52:47.517Z,57.27
2017-08-10T18:55:15.848Z,55.90
2017-08-10T18:57:44.140Z,62.17
2017-08-10T19:00:12.420Z,57.03
2017-08-10T19:02:41.464Z,52.30
2017-08-10T19:05:20.620Z,48.83
2017-08-10T19:07:51.503Z,49.60
2017-08-10T19:10:20.435Z,54.60
2017-08-10T19:12:50.006Z,51.30
2017-08-10T19:15:19.231Z,56.90
2017-08-10T19:17:47.555Z,55.60
2017-08-10T19:20:16.828Z,56.97
2017-08-10T19:22:45.294Z,55.07
2017-08-10T19:25:13.982Z,60.93
2017-08-10T19:27:43.793Z,51.70
2017-08-10T19:30:12.279Z,53.27
2017-08-10T19:32:40.859Z,57.20
2017-08-10T19:35:11.401Z,53.27
2017-08-10T19:37:39.976Z,58.07
2017-08-10T19:40:08.677Z,54.90
2017-08-10T19:42:37.462Z,57.37
2017-08-10T19:45:06.365Z,57.47
2017-08-10T19:47:35.960Z,57.10
2017-08-10T19:50:04.862Z,58.30
2017-08-10T19:52:34.350Z,56.57
2017-08-10T19:55:03.959Z,61.37
2017-08-10T19:57:32.546Z,57.50
2017-08-10T20:00:01.075Z,60.50
2017-08-10T20:02:29.526Z,57.87
2017-08-10T20:04:57.901Z,57.20
2017-08-10T20:07:26.198Z,56.97
2017-08-10T20:09:54.532Z,48.73
2017-08-10T20:12:24.101Z,54.03
2017-08-10T20:14:54.181Z,48.60
2017-08-10T20:17:22.626Z,54.97
2017-08-10T20:19:52.137Z,54.30
2017-08-10T20:22:22.159Z,59.40
2017-08-10T20:24:51.199Z,59.20
2017-08-10T20:27:19.867Z,57.30
2017-08-10T20:29:49.093Z,56.50
2017-08-10T20:32:17.361Z,52.17
2017-08-10T20:34:45.629Z,51.67
2017-08-10T20:37:13.887Z,50.50
2017-08-10T20:39:42.641Z,51.93
2017-08-10T20:42:10.919Z,50.97
2017-08-10T20:44:39.970Z,50.00
2017-08-10T20:47:08.240Z,50.33
2017-08-10T20:49:36.555Z,49.73
2017-08-10T20:52:04.884Z,44.50
2017-08-10T20:54:33.172Z,42.33
2017-08-10T20:57:01.586Z,42.57
2017-08-10T20:59:30.771Z,80.47
2017-08-10T21:01:59.033Z,49.40
2017-08-10T21:04:27.303Z,41.63
2017-08-10T21:06:55.585Z,42.27
2017-08-10T21:09:23.827Z,41.10
2017-08-10T21:11:52.111Z,39.43
2017-08-10T21:14:20.404Z,43.60
2017-08-10T21:16:48.706Z,37.00
2017-08-10T21:19:16.974Z,36.37
2017-08-10T21:21:45.246Z,42.73
2017-08-10T21:24:13.558Z,42.40
2017-08-10T21:26:41.845Z,45.27
2017-08-10T21:29:10.130Z,46.50
2017-08-10T21:31:39.174Z,47.90
2017-08-10T21:34:07.478Z,44.77
2017-08-10T21:36:37.074Z,46.77
2017-08-10T21:39:05.397Z,50.70
2017-08-10T21:41:34.482Z,51.03
2017-08-10T21:44:03.519Z,49.70
2017-08-10T21:46:31.801Z,53.97
2017-08-10T21:49:00.097Z,55.73
2017-08-10T21:51:28.564Z,56.57
2017-08-10T21:53:56.842Z,52.03
2017-08-10T21:56:25.993Z,53.50
2017-08-10T21:58:55.978Z,53.90
2017-08-10T22:01:24.883Z,47.83
2017-08-10T22:03:53.179Z,48.77
2017-08-10T22:06:21.482Z,48.23
2017-08-10T22:08:49.784Z,46.17
2017-08-10T22:11:18.009Z,50.90
2017-08-10T22:13:46.297Z,48.30
2017-08-10T22:16:14.619Z,44.50
2017-08-10T22:18:42.890Z,54.83
2017-08-10T22:21:11.152Z,56.10
2017-08-10T22:23:39.448Z,64.67
2017-08-10T22:26:07.732Z,63.83
2017-08-10T22:28:35.997Z,66.77
2017-08-10T22:31:04.246Z,66.73
2017-08-10T22:33:32.524Z,64.60
2017-08-10T22:36:00.779Z,67.10
2017-08-10T22:38:29.846Z,67.77
2017-08-10T22:40:58.071Z,69.30
2017-08-10T22:43:26.373Z,76.40
2017-08-10T22:45:54.590Z,77.33
2017-08-10T22:48:22.837Z,74.07
2017-08-10T22:50:51.142Z,73.00
2017-08-10T22:53:19.427Z,76.23
2017-08-10T22:55:48.482Z,71.07
2017-08-10T22:58:16.721Z,73.10
2017-08-10T23:00:45.039Z,70.53
2017-08-10T23:03:13.345Z,72.70
2017-08-10T23:05:41.623Z,73.73
2017-08-10T23:08:09.898Z,80.17
2017-08-10T23:10:38.158Z,72.73
2017-08-10T23:13:06.449Z,67.70
2017-08-10T23:15:34.702Z,71.73
2017-08-10T23:18:03.522Z,76.97
2017-08-10T23:20:31.822Z,75.57
2017-08-10T23:23:00.072Z,71.63
2017-08-10T23:25:29.126Z,71.87
2017-08-10T23:27:57.388Z,64.23
2017-08-10T23:30:26.398Z,64.20
2017-08-10T23:32:54.645Z,62.93
2017-08-10T23:35:23.672Z,63.27
2017-08-10T23:37:51.957Z,55.63
2017-08-10T23:40:20.667Z,56.83
2017-08-10T23:42:48.937Z,54.07
2017-08-10T23:45:17.217Z,61.40
2017-08-10T23:47:45.582Z,61.00
2017-08-10T23:50:13.827Z,62.23
2017-08-10T23:52:42.137Z,59.40
2017-08-10T23:55:10.420Z,62.60
2017-08-10T23:57:38.726Z,64.70
